Strona główna
METAR-TAF:

METAR-TAF

Lotnisko :

Port lotniczy Cuneo-Levaldigi

Cuneo, Włochy

Szerokość geograficzna: 44-32-47N, Długość geograficzna: 007-37-20E, wysokość: 386 m

Aktualna obserwacja pogody

Raport powstał 1 godzina i 13 minut temu, godzina 09:50 UTC
Wiatr 3 kt od południowo-południowy wschód, zmienny między wschodnio-południowy wschód i południe
Temperatura 11°C
Wilgotność 66%
Ciśnienie 1025 hPa
Widzialność: 8000 m

METAR: LIMZ 180950Z 16003KT 120V180 8000 NSC 11/05 Q1025

czas: 12:03 (11:03 UTC)

Prognoza

Raport powstał 3 godziny i 9 minut temu, godzina 07:54 UTC
Prognoza ważna od 18 godzina 08 UTC do 19 godzina 06 UTC
Wiatr 5 kt z kierunków zmiennych
Widzialność: 3500 m
Rozproszone chmury na wysokości 6000 ft
zamglenie
Stopniowe zmiany
od 18 godzina 09 UTC do 18 godzina 11 UTC
Widzialność: 6000 m

TAF: LIMZ 180754Z 1808/1906 VRB05KT 3500 BR SCT060 BECMG 1809/1811 6000

Obserwacja i prognoza pogody dla ponad 4000 lotnisk (raport METAR i TAF).

Dostępne stacje oznaczono żółtymi i czerwonymi punktami na mapie.

Najedź kursorem aby zobaczyć nazwę stacji.

Kliknij aby zobaczyć obserwacje i prognozy pogody.

Aby zmienić mapę: kliknij na zielony przycisk z czarnym krzyżykiem, aby powiększyć; na zielony przycisk z myślnikiem, aby pomniejszyć; na zielone strzałki, aby przejść do map sąsiednich.


METAR-TAF: